Time;durP1;ratioP1;P1;durP2;ratioP2;P2;SDS_P1;SDS_P2;PMS_P1;PMS_P2;Temp;Humidity;BMP_temperature;BMP_pressure;BME280_temperature;BME280_humidity;BME280_pressure;Samples;Min_cycle;Max_cycle;Signal;HPM_P1;HPM_P2
2023/05/04 00:01:10;;;;;;;6.85;4.68;;;13.00;64.80;;;;;;5114759;28;20034;-73
2023/05/04 00:03:37;;;;;;;7.97;4.97;;;13.00;64.60;;;;;;5113842;28;20088;-73
2023/05/04 00:06:03;;;;;;;9.65;5.03;;;13.00;64.80;;;;;;5113761;28;20032;-73
2023/05/04 00:08:29;;;;;;;8.70;4.97;;;12.90;64.80;;;;;;5114615;28;20039;-73
2023/05/04 00:10:55;;;;;;;9.18;5.25;;;12.90;64.30;;;;;;5113727;28;20027;-73
2023/05/04 00:13:21;;;;;;;10.68;5.20;;;12.90;64.40;;;;;;5114500;28;20029;-73
2023/05/04 00:15:47;;;;;;;9.30;5.00;;;13.00;64.60;;;;;;5114439;28;20054;-73
2023/05/04 00:18:12;;;;;;;10.90;5.45;;;13.00;64.70;;;;;;5114437;28;20029;-73
2023/05/04 00:20:38;;;;;;;10.27;5.32;;;13.00;64.80;;;;;;5114366;28;20088;-73
2023/05/04 00:23:03;;;;;;;9.27;5.72;;;12.90;64.40;;;;;;5096149;28;20130;-73
2023/05/04 00:25:29;;;;;;;8.15;5.40;;;12.90;64.60;;;;;;5114252;28;20046;-73
2023/05/04 00:27:55;;;;;;;8.52;5.45;;;12.90;64.70;;;;;;5114279;28;20083;-73
2023/05/04 00:30:21;;;;;;;9.98;5.90;;;12.80;64.70;;;;;;5114353;28;20028;-73
2023/05/04 00:32:47;;;;;;;9.85;6.03;;;12.70;64.90;;;;;;5114221;28;20031;-73
2023/05/04 00:35:12;;;;;;;8.60;5.60;;;12.70;65.30;;;;;;5114010;28;20036;-73
2023/05/04 00:37:38;;;;;;;9.90;5.65;;;12.60;65.40;;;;;;5113175;28;20047;-73
2023/05/04 00:40:05;;;;;;;10.52;5.95;;;12.60;65.70;;;;;;5113156;28;20020;-73
2023/05/04 00:42:30;;;;;;;9.27;5.90;;;12.60;65.90;;;;;;5114157;28;20017;-73
2023/05/04 00:44:56;;;;;;;10.23;5.75;;;12.50;66.10;;;;;;5113021;28;20076;-73
2023/05/04 00:47:21;;;;;;;10.80;6.05;;;12.50;66.40;;;;;;5113901;28;20102;-73
2023/05/04 00:49:47;;;;;;;11.00;6.30;;;12.50;66.30;;;;;;5113895;28;20036;-73
2023/05/04 00:52:14;;;;;;;10.38;6.05;;;12.50;66.40;;;;;;5113847;28;20035;-73
2023/05/04 00:54:42;;;;;;;9.55;5.90;;;12.50;66.80;;;;;;5113783;28;20027;-73
2023/05/04 00:57:07;;;;;;;10.48;5.70;;;12.50;66.80;;;;;;5113504;28;20080;-73
2023/05/04 00:59:33;;;;;;;9.38;5.50;;;12.40;66.90;;;;;;5113535;28;20062;-73
2023/05/04 01:01:59;;;;;;;9.38;6.15;;;12.40;67.30;;;;;;5113672;28;20024;-73
2023/05/04 01:04:25;;;;;;;9.48;5.60;;;12.40;67.20;;;;;;5113649;28;20074;-73
2023/05/04 01:07:08;;;;;;;12.38;5.97;;;12.40;67.40;;;;;;5113651;28;20024;-73
2023/05/04 01:09:45;;;;;;;11.43;5.72;;;12.40;67.30;;;;;;5112683;28;20032;-73
2023/05/04 01:12:14;;;;;;;8.95;5.32;;;12.30;67.40;;;;;;5113625;28;20056;-73
2023/05/04 01:14:42;;;;;;;7.43;5.15;;;12.20;67.80;;;;;;5113512;28;20039;-73
2023/05/04 01:17:08;;;;;;;9.25;5.40;;;12.20;68.00;;;;;;5112456;28;20103;-73
2023/05/04 01:19:35;;;;;;;10.30;5.18;;;12.10;68.20;;;;;;5113502;28;20020;-73
2023/05/04 01:22:00;;;;;;;9.73;5.57;;;12.00;68.70;;;;;;5112498;28;20024;-73
2023/05/04 01:24:27;;;;;;;8.30;5.13;;;11.90;68.90;;;;;;5113323;28;20044;-73
2023/05/04 01:26:59;;;;;;;10.07;5.78;;;11.90;69.20;;;;;;5113405;28;20021;-73
2023/05/04 01:29:52;;;;;;;9.52;5.57;;;11.90;69.40;;;;;;5113445;28;20028;-73
2023/05/04 01:32:20;;;;;;;9.30;5.28;;;11.90;69.30;;;;;;5113488;28;20043;-73
2023/05/04 01:34:45;;;;;;;9.88;5.25;;;11.80;69.70;;;;;;5113263;28;20035;-73
2023/05/04 01:37:11;;;;;;;8.60;5.05;;;11.70;70.00;;;;;;5113377;28;20040;-73
2023/05/04 01:39:37;;;;;;;11.52;5.95;;;11.80;70.10;;;;;;5112378;28;20043;-73
2023/05/04 01:42:03;;;;;;;10.98;5.80;;;11.80;70.20;;;;;;5113284;28;20020;-73
2023/05/04 01:44:28;;;;;;;13.38;5.85;;;11.70;70.00;;;;;;5095420;28;20032;-73
2023/05/04 01:46:54;;;;;;;10.02;5.57;;;11.70;70.00;;;;;;5112269;28;20028;-73
2023/05/04 01:49:19;;;;;;;9.93;5.45;;;11.60;70.40;;;;;;5112169;28;20036;-73
2023/05/04 01:51:45;;;;;;;9.75;5.43;;;11.60;70.40;;;;;;5112205;28;20035;-73
2023/05/04 01:54:11;;;;;;;12.90;6.15;;;11.60;70.70;;;;;;5113137;28;20024;-73
2023/05/04 01:56:37;;;;;;;10.00;5.72;;;11.50;71.00;;;;;;5113031;28;20028;-73
2023/05/04 01:59:03;;;;;;;11.75;5.45;;;11.50;71.00;;;;;;5113122;28;20020;-73
2023/05/04 02:01:28;;;;;;;9.93;5.32;;;11.50;71.10;;;;;;5112099;28;20025;-73
2023/05/04 02:03:54;;;;;;;8.50;5.55;;;11.50;71.20;;;;;;5113064;28;20481;-73
2023/05/04 02:06:19;;;;;;;11.00;5.85;;;11.50;71.30;;;;;;5113053;28;20032;-73
2023/05/04 02:08:45;;;;;;;9.20;6.18;;;11.50;71.20;;;;;;5112077;28;20032;-73
2023/05/04 02:11:13;;;;;;;10.85;5.97;;;11.50;71.10;;;;;;5115181;28;20047;-73
2023/05/04 02:13:39;;;;;;;11.40;6.10;;;11.40;71.40;;;;;;5115813;28;20053;-73
2023/05/04 02:16:05;;;;;;;11.05;5.65;;;11.30;71.50;;;;;;5115808;28;20052;-73
2023/05/04 02:18:31;;;;;;;11.00;6.32;;;11.30;71.80;;;;;;5116757;28;20028;-73
2023/05/04 02:20:56;;;;;;;10.20;5.93;;;11.20;71.90;;;;;;5116648;28;20047;-73
2023/05/04 02:23:22;;;;;;;12.43;5.80;;;11.20;72.30;;;;;;5098607;28;20051;-73
2023/05/04 02:25:48;;;;;;;9.88;5.90;;;11.20;72.40;;;;;;5115728;28;20063;-73
2023/05/04 02:28:13;;;;;;;12.07;5.88;;;11.20;72.60;;;;;;5115510;28;20028;-73
2023/05/04 02:30:40;;;;;;;10.65;6.10;;;11.20;72.70;;;;;;5116530;28;20045;-73
2023/05/04 02:33:06;;;;;;;9.15;5.65;;;11.20;72.90;;;;;;5116523;28;20027;-73
2023/05/04 02:35:32;;;;;;;11.88;5.55;;;11.20;72.70;;;;;;5115382;28;20024;-73
2023/05/04 02:37:57;;;;;;;10.27;5.95;;;11.20;72.70;;;;;;5116470;28;20040;-73
2023/05/04 02:40:23;;;;;;;11.52;6.15;;;11.20;72.80;;;;;;5115402;28;20045;-73
2023/05/04 02:42:48;;;;;;;11.50;6.00;;;11.20;72.70;;;;;;5115502;28;20039;-73
2023/05/04 02:45:14;;;;;;;16.88;5.70;;;11.20;72.80;;;;;;5116270;28;20016;-73
2023/05/04 02:47:40;;;;;;;12.93;5.78;;;11.20;73.00;;;;;;5116154;28;20043;-73
2023/05/04 02:50:06;;;;;;;9.55;5.80;;;11.30;72.80;;;;;;5116205;28;20031;-73
2023/05/04 02:52:32;;;;;;;10.80;5.63;;;11.20;72.80;;;;;;5116148;28;20028;-73
2023/05/04 02:54:58;;;;;;;8.35;5.57;;;11.20;73.10;;;;;;5098157;28;20054;-73
2023/05/04 02:57:24;;;;;;;10.07;5.85;;;11.20;72.90;;;;;;5115980;28;20020;-73
2023/05/04 02:59:50;;;;;;;10.80;5.40;;;11.20;73.00;;;;;;5115963;28;20028;-73
2023/05/04 03:02:15;;;;;;;11.93;6.15;;;11.20;73.10;;;;;;5116086;28;20024;-73
2023/05/04 03:04:41;;;;;;;8.98;5.75;;;11.10;73.10;;;;;;5115855;28;20024;-73
2023/05/04 03:07:08;;;;;;;9.07;5.60;;;11.10;73.20;;;;;;5115836;28;20028;-73
2023/05/04 03:09:33;;;;;;;8.65;4.85;;;11.10;73.40;;;;;;5114753;28;20026;-73
2023/05/04 03:12:00;;;;;;;9.02;4.85;;;11.00;73.50;;;;;;5115742;28;20032;-73
2023/05/04 03:14:25;;;;;;;11.07;5.45;;;11.00;73.50;;;;;;5115742;28;20047;-73
2023/05/04 03:16:51;;;;;;;10.93;5.82;;;11.00;73.70;;;;;;5114610;28;20024;-73
2023/05/04 03:19:17;;;;;;;10.93;5.43;;;11.00;73.90;;;;;;5114802;28;20027;-73
2023/05/04 03:21:45;;;;;;;10.88;5.25;;;10.90;73.80;;;;;;5115265;28;20021;-73
2023/05/04 03:24:11;;;;;;;7.47;5.10;;;10.90;74.90;;;;;;5115329;28;20090;-73
2023/05/04 03:26:36;;;;;;;9.10;5.35;;;10.80;74.20;;;;;;5097773;28;20024;-73
2023/05/04 03:29:02;;;;;;;7.45;4.72;;;10.90;74.30;;;;;;5115361;28;20032;-73
2023/05/04 03:31:27;;;;;;;8.88;5.07;;;10.90;74.10;;;;;;5115351;28;20036;-73
2023/05/04 03:33:53;;;;;;;7.50;5.15;;;10.80;74.20;;;;;;5097318;28;20069;-72
2023/05/04 03:36:19;;;;;;;10.82;4.97;;;10.80;74.10;;;;;;5114204;28;20036;-72
2023/05/04 03:38:45;;;;;;;9.43;4.88;;;10.80;74.30;;;;;;5114332;28;20017;-73
2023/05/04 03:41:11;;;;;;;7.93;4.65;;;10.80;74.30;;;;;;5114151;28;20047;-73
2023/05/04 03:43:37;;;;;;;8.35;4.85;;;10.70;74.70;;;;;;5115157;28;20457;-72
2023/05/04 03:46:03;;;;;;;9.40;4.97;;;10.70;74.80;;;;;;5115059;28;20020;-73
2023/05/04 03:48:29;;;;;;;10.52;5.70;;;10.60;74.70;;;;;;5115056;28;20036;-73
2023/05/04 03:50:54;;;;;;;7.45;5.10;;;10.70;74.80;;;;;;5114947;28;20028;-73
2023/05/04 03:53:20;;;;;;;10.68;5.30;;;10.70;74.90;;;;;;5114973;28;20028;-73
2023/05/04 03:55:46;;;;;;;9.85;5.13;;;10.70;74.90;;;;;;5114825;28;20484;-73
2023/05/04 03:58:11;;;;;;;9.13;5.10;;;10.60;75.10;;;;;;5114830;28;20481;-73
2023/05/04 04:00:37;;;;;;;11.70;5.32;;;10.60;75.30;;;;;;5114780;28;20055;-73
2023/05/04 04:03:03;;;;;;;9.32;4.93;;;10.60;75.50;;;;;;5114722;28;20032;-73
2023/05/04 04:05:28;;;;;;;9.27;5.43;;;10.50;75.60;;;;;;5114676;28;20020;-73
2023/05/04 04:07:54;;;;;;;11.70;5.82;;;10.50;75.70;;;;;;5096694;28;20028;-73
2023/05/04 04:10:19;;;;;;;8.95;5.70;;;10.50;75.80;;;;;;5114567;28;20027;-73
2023/05/04 04:12:45;;;;;;;9.35;5.45;;;10.40;76.30;;;;;;5114554;28;20120;-73
2023/05/04 04:15:11;;;;;;;10.75;5.47;;;10.40;76.30;;;;;;5114458;28;20054;-73
2023/05/04 04:17:37;;;;;;;8.43;5.13;;;10.30;76.60;;;;;;5114415;28;20073;-73
2023/05/04 04:20:02;;;;;;;9.90;5.30;;;10.40;76.60;;;;;;5114334;28;20039;-73
2023/05/04 04:22:28;;;;;;;8.77;5.40;;;10.40;76.60;;;;;;5113027;28;20091;-74
2023/05/04 04:24:54;;;;;;;8.88;4.90;;;10.40;76.40;;;;;;5113417;28;20385;-73
2023/05/04 04:27:20;;;;;;;9.20;5.60;;;10.40;76.50;;;;;;5114289;28;20024;-73
2023/05/04 04:29:45;;;;;;;10.55;5.35;;;10.50;76.60;;;;;;5114247;28;20016;-72
2023/05/04 04:32:11;;;;;;;11.43;5.57;;;10.50;76.70;;;;;;5113692;28;20085;-73
2023/05/04 04:34:37;;;;;;;12.75;5.80;;;10.40;76.70;;;;;;5096060;28;20020;-73
2023/05/04 04:37:03;;;;;;;10.18;5.38;;;10.50;76.60;;;;;;5114042;28;20028;-73
2023/05/04 04:39:28;;;;;;;11.32;5.22;;;10.30;76.70;;;;;;5113113;28;20035;-73
2023/05/04 04:41:54;;;;;;;8.30;4.88;;;10.40;76.90;;;;;;5113127;28;20039;-73
2023/05/04 04:44:20;;;;;;;10.27;5.05;;;10.40;77.20;;;;;;5096032;28;20024;-73
2023/05/04 04:46:46;;;;;;;9.65;5.88;;;10.50;77.10;;;;;;5112930;28;20032;-73
2023/05/04 04:49:12;;;;;;;9.65;5.75;;;10.50;77.20;;;;;;5079370;28;20024;-73
2023/05/04 04:51:40;;;;;;;9.95;5.90;;;10.50;77.60;;;;;;5113958;28;20555;-73
2023/05/04 04:54:06;;;;;;;11.30;5.85;;;10.40;76.80;;;;;;5096334;28;20028;-73
2023/05/04 04:56:31;;;;;;;11.45;6.57;;;10.40;78.60;;;;;;5095850;28;20032;-73
2023/05/04 04:58:57;;;;;;;12.68;6.22;;;10.40;78.20;;;;;;5112638;28;20036;-72
2023/05/04 05:01:23;;;;;;;12.13;6.45;;;10.40;77.70;;;;;;5113737;28;20055;-72
2023/05/04 05:03:49;;;;;;;11.27;6.55;;;10.40;77.80;;;;;;5113667;28;20389;-73
2023/05/04 05:06:15;;;;;;;11.45;6.28;;;10.40;78.20;;;;;;5095855;28;20087;-74
2023/05/04 05:08:42;;;;;;;11.68;6.22;;;10.50;78.50;;;;;;5113625;28;20080;-73
2023/05/04 05:11:08;;;;;;;15.23;7.07;;;10.50;78.40;;;;;;5112684;28;20028;-73
2023/05/04 05:13:34;;;;;;;10.68;6.07;;;10.50;78.20;;;;;;5112573;28;20024;-73
2023/05/04 05:16:00;;;;;;;10.57;6.07;;;10.50;78.30;;;;;;5112584;28;20055;-73
2023/05/04 05:18:28;;;;;;;9.05;5.70;;;10.50;78.70;;;;;;5113513;28;20050;-73
2023/05/04 05:20:54;;;;;;;10.90;5.78;;;10.60;78.80;;;;;;5113492;28;20017;-74
2023/05/04 05:23:19;;;;;;;11.15;5.90;;;10.60;78.60;;;;;;5112204;28;20058;-73
2023/05/04 05:25:46;;;;;;;13.30;5.75;;;10.60;78.20;;;;;;5113414;28;20032;-73
2023/05/04 05:28:13;;;;;;;10.40;5.75;;;10.60;78.30;;;;;;5112377;28;20111;-73
2023/05/04 05:30:39;;;;;;;10.95;5.38;;;10.60;78.00;;;;;;5113381;28;20035;-73
2023/05/04 05:33:04;;;;;;;10.13;5.78;;;10.60;78.20;;;;;;5113336;28;20021;-73
2023/05/04 05:35:30;;;;;;;10.60;5.78;;;10.60;78.40;;;;;;5113225;28;20561;-74
2023/05/04 05:37:56;;;;;;;11.55;5.97;;;10.60;78.20;;;;;;5112354;28;20020;-74
2023/05/04 05:40:22;;;;;;;11.43;6.18;;;10.60;78.30;;;;;;5113277;28;20080;-73
2023/05/04 05:42:48;;;;;;;9.85;5.50;;;10.70;78.20;;;;;;5113312;28;20046;-73
2023/05/04 05:45:13;;;;;;;10.93;5.88;;;10.70;78.60;;;;;;5115671;28;20028;-73
2023/05/04 05:47:39;;;;;;;10.63;4.97;;;10.70;78.40;;;;;;5117390;28;20033;-73
2023/05/04 05:50:05;;;;;;;9.35;5.05;;;10.70;78.20;;;;;;5117307;28;20032;-73
2023/05/04 05:52:31;;;;;;;12.07;5.30;;;10.80;78.50;;;;;;5117263;28;20028;-73
2023/05/04 05:54:57;;;;;;;9.75;5.45;;;10.80;78.30;;;;;;5117279;28;20039;-73
2023/05/04 05:57:22;;;;;;;10.13;5.03;;;10.80;78.60;;;;;;5117103;28;20032;-73
2023/05/04 05:59:48;;;;;;;11.35;5.63;;;10.80;78.60;;;;;;5117289;28;20028;-73
2023/05/04 06:02:14;;;;;;;9.15;5.32;;;10.80;78.30;;;;;;5116076;28;20028;-73
2023/05/04 06:04:45;;;;;;;8.73;5.18;;;10.90;78.60;;;;;;5117051;28;20050;-73
2023/05/04 06:07:12;;;;;;;9.95;5.38;;;11.00;78.40;;;;;;5116996;28;20039;-73
2023/05/04 06:09:38;;;;;;;10.50;5.18;;;11.00;78.50;;;;;;5116966;28;20028;-73
2023/05/04 06:12:05;;;;;;;8.88;5.38;;;11.10;78.80;;;;;;5116036;28;20028;-73
2023/05/04 06:14:32;;;;;;;9.75;5.40;;;11.10;78.60;;;;;;5116024;28;20028;-73
2023/05/04 06:16:57;;;;;;;10.43;5.90;;;11.20;78.60;;;;;;5115754;28;20032;-73
2023/05/04 06:19:23;;;;;;;9.52;5.28;;;11.20;78.60;;;;;;5116795;28;20024;-73
2023/05/04 06:21:49;;;;;;;11.32;5.88;;;11.30;78.30;;;;;;5098835;28;20476;-73
2023/05/04 06:24:15;;;;;;;9.50;5.38;;;11.30;78.30;;;;;;5116529;28;20062;-73
2023/05/04 06:26:40;;;;;;;11.05;5.43;;;11.40;78.60;;;;;;5115688;28;20039;-73
2023/05/04 06:29:06;;;;;;;9.07;5.38;;;11.50;78.20;;;;;;5116606;28;20042;-73
2023/05/04 06:31:31;;;;;;;10.65;5.60;;;11.50;77.60;;;;;;5115634;28;20032;-73
2023/05/04 06:33:57;;;;;;;10.13;5.22;;;11.60;77.90;;;;;;5116524;28;20036;-73
2023/05/04 06:36:24;;;;;;;10.52;5.57;;;11.60;77.80;;;;;;5116489;28;20037;-73
2023/05/04 06:38:50;;;;;;;9.52;5.60;;;11.70;78.30;;;;;;5115461;28;20016;-73
2023/05/04 06:41:16;;;;;;;11.27;5.20;;;11.70;78.30;;;;;;5098441;28;20055;-73
2023/05/04 06:43:42;;;;;;;11.35;6.15;;;11.80;78.10;;;;;;5115365;28;20020;-73
2023/05/04 06:46:08;;;;;;;11.23;5.72;;;11.90;78.50;;;;;;5115276;28;20017;-73
2023/05/04 06:48:33;;;;;;;13.77;6.15;;;12.00;77.80;;;;;;5116377;28;20023;-73
2023/05/04 06:50:59;;;;;;;9.63;5.00;;;12.10;77.60;;;;;;5098338;28;20032;-73
2023/05/04 06:53:24;;;;;;;8.90;5.10;;;12.10;77.40;;;;;;5115258;28;20038;-73
2023/05/04 06:55:50;;;;;;;9.30;5.78;;;12.10;77.60;;;;;;5115318;28;20054;-73
2023/05/04 06:58:18;;;;;;;8.43;5.03;;;12.20;77.40;;;;;;5116069;28;20024;-73
2023/05/04 07:00:44;;;;;;;10.50;5.47;;;12.30;77.90;;;;;;5116046;28;20022;-73
2023/05/04 07:03:10;;;;;;;10.70;5.40;;;12.30;76.30;;;;;;5114914;28;20020;-73
2023/05/04 07:05:36;;;;;;;9.07;5.38;;;12.40;76.10;;;;;;5115899;28;20048;-73
2023/05/04 07:08:02;;;;;;;11.50;5.30;;;12.30;76.30;;;;;;5116000;28;20024;-73
2023/05/04 07:10:28;;;;;;;8.90;5.68;;;12.40;76.40;;;;;;5097969;28;20032;-73
2023/05/04 07:12:53;;;;;;;10.07;4.93;;;12.40;77.00;;;;;;5115774;28;20083;-73
2023/05/04 07:15:19;;;;;;;10.70;5.57;;;12.50;77.00;;;;;;5115707;28;20028;-73
2023/05/04 07:17:46;;;;;;;10.63;5.35;;;12.70;77.00;;;;;;5114579;28;20035;-73
2023/05/04 07:20:13;;;;;;;8.60;5.13;;;12.70;76.10;;;;;;5115625;28;20048;-73
2023/05/04 07:22:39;;;;;;;9.50;5.22;;;12.80;74.40;;;;;;5115380;28;20035;-74
2023/05/04 07:25:05;;;;;;;8.68;5.22;;;12.80;75.40;;;;;;5097694;28;20016;-73
2023/05/04 07:27:31;;;;;;;7.60;4.72;;;12.90;75.60;;;;;;5115507;28;20080;-73
2023/05/04 07:29:56;;;;;;;8.95;5.22;;;13.00;74.50;;;;;;5115448;28;20020;-73
2023/05/04 07:32:22;;;;;;;9.95;5.43;;;13.10;76.20;;;;;;5115377;28;20028;-73
2023/05/04 07:34:48;;;;;;;8.98;5.10;;;13.20;74.40;;;;;;5114327;28;20028;-73
2023/05/04 07:37:14;;;;;;;7.13;4.70;;;13.30;73.90;;;;;;5115175;28;20436;-73
2023/05/04 07:39:40;;;;;;;8.93;5.40;;;13.30;73.20;;;;;;5114395;28;20035;-73
2023/05/04 07:42:07;;;;;;;9.23;5.22;;;13.40;73.70;;;;;;5115191;28;20028;-73
2023/05/04 07:44:32;;;;;;;10.80;4.95;;;13.50;73.90;;;;;;5115169;28;20076;-72
2023/05/04 07:46:59;;;;;;;10.25;5.28;;;13.50;74.00;;;;;;5115058;28;20036;-73
2023/05/04 07:49:25;;;;;;;12.27;5.30;;;13.60;73.10;;;;;;5115094;28;20024;-74
2023/05/04 07:51:51;;;;;;;7.07;4.70;;;13.80;73.70;;;;;;5114126;28;20031;-73
2023/05/04 07:54:17;;;;;;;7.93;4.80;;;13.90;73.10;;;;;;5114892;28;20039;-73
2023/05/04 07:56:43;;;;;;;8.73;4.72;;;14.00;72.40;;;;;;5113781;28;20036;-73
2023/05/04 07:59:09;;;;;;;9.15;5.13;;;14.10;72.20;;;;;;5114825;28;20032;-74
2023/05/04 08:01:34;;;;;;;12.38;5.30;;;14.20;70.90;;;;;;5114837;28;20028;-73
2023/05/04 08:04:00;;;;;;;9.63;5.05;;;14.30;70.70;;;;;;5114783;28;20032;-73
2023/05/04 08:06:26;;;;;;;10.15;4.45;;;14.40;70.30;;;;;;5113725;28;20028;-73
2023/05/04 08:08:51;;;;;;;8.40;4.88;;;14.50;70.90;;;;;;5113648;28;20036;-73
2023/05/04 08:11:17;;;;;;;8.55;5.10;;;14.60;71.10;;;;;;5114666;28;20024;-74
2023/05/04 08:13:47;;;;;;;9.75;4.97;;;14.70;70.90;;;;;;5114578;28;20020;-73
2023/05/04 08:16:13;;;;;;;10.43;5.30;;;14.80;70.80;;;;;;5113390;28;20036;-73
2023/05/04 08:18:38;;;;;;;8.07;4.43;;;14.90;69.80;;;;;;5113454;28;20042;-73
2023/05/04 08:21:04;;;;;;;7.30;4.40;;;14.90;70.50;;;;;;5114400;28;20024;-73
2023/05/04 08:23:31;;;;;;;9.23;4.97;;;15.00;68.90;;;;;;5113279;28;20108;-73
2023/05/04 08:25:56;;;;;;;9.73;5.10;;;15.10;68.50;;;;;;5096550;28;20031;-74
2023/05/04 08:28:22;;;;;;;8.15;4.75;;;15.10;68.80;;;;;;5114274;28;20024;-73
2023/05/04 08:30:48;;;;;;;10.95;4.95;;;15.10;69.30;;;;;;5114234;28;20123;-73
2023/05/04 08:33:14;;;;;;;10.45;5.68;;;15.20;69.20;;;;;;5113265;28;20031;-73
2023/05/04 08:35:39;;;;;;;10.25;5.82;;;15.30;67.70;;;;;;5114011;28;20024;-73
2023/05/04 08:38:06;;;;;;;8.38;4.85;;;15.40;67.30;;;;;;5113171;28;20060;-73
2023/05/04 08:40:45;;;;;;;7.28;5.00;;;15.40;67.50;;;;;;5090857;28;20375;-73
2023/05/04 08:43:10;;;;;;;12.85;5.40;;;15.60;68.60;;;;;;5089773;28;20043;-73
2023/05/04 08:45:39;;;;;;;9.43;5.30;;;15.70;68.50;;;;;;5090542;28;20088;-73
2023/05/04 08:48:09;;;;;;;9.13;5.43;;;15.80;69.60;;;;;;5090479;28;20032;-73
2023/05/04 08:50:36;;;;;;;9.52;5.15;;;15.90;70.00;;;;;;5090438;28;20119;-73
2023/05/04 08:53:05;;;;;;;8.43;4.40;;;16.00;68.50;;;;;;5090402;28;20063;-73
2023/05/04 08:55:32;;;;;;;11.52;5.75;;;16.00;65.60;;;;;;5090273;28;20024;-73
2023/05/04 08:58:02;;;;;;;8.85;5.82;;;16.10;67.80;;;;;;5090300;28;20023;-73
2023/05/04 09:00:29;;;;;;;11.43;5.80;;;16.30;68.00;;;;;;5090152;28;20033;-73
2023/05/04 09:02:58;;;;;;;8.23;5.13;;;16.40;68.80;;;;;;5089207;28;20502;-73
2023/05/04 09:05:25;;;;;;;9.43;4.95;;;16.50;68.10;;;;;;5089226;28;20021;-73
2023/05/04 09:07:51;;;;;;;8.70;5.20;;;16.60;67.00;;;;;;5090093;28;20029;-73
2023/05/04 09:10:18;;;;;;;10.35;5.43;;;16.60;66.20;;;;;;5089040;28;20029;-73
2023/05/04 09:12:44;;;;;;;7.78;5.35;;;16.70;66.40;;;;;;5089975;28;20054;-73
2023/05/04 09:15:17;;;;;;;10.65;5.95;;;16.80;67.00;;;;;;5088995;28;20036;-73
2023/05/04 09:18:01;;;;;;;8.00;4.88;;;16.90;65.70;;;;;;5089937;28;20055;-73
2023/05/04 09:20:26;;;;;;;8.15;5.72;;;17.00;65.70;;;;;;5089810;28;20027;-73
2023/05/04 09:23:03;;;;;;;10.23;5.70;;;17.10;64.30;;;;;;5089765;28;20029;-73
2023/05/04 09:25:28;;;;;;;8.13;4.95;;;17.20;64.80;;;;;;5089783;28;20029;-73
2023/05/04 09:27:55;;;;;;;8.65;5.18;;;17.40;66.00;;;;;;5089690;28;20040;-73
2023/05/04 09:30:21;;;;;;;7.22;4.97;;;17.50;65.30;;;;;;5089590;28;20043;-73
2023/05/04 09:32:48;;;;;;;8.38;5.13;;;17.50;64.50;;;;;;5089571;28;20029;-74
2023/05/04 09:35:25;;;;;;;8.60;5.93;;;17.60;64.60;;;;;;5089423;28;20048;-74
2023/05/04 09:37:51;;;;;;;9.85;5.20;;;17.60;63.40;;;;;;5089607;28;20055;-74
2023/05/04 09:40:16;;;;;;;9.60;5.35;;;17.70;62.60;;;;;;5089096;28;20049;-74
2023/05/04 09:42:42;;;;;;;8.98;5.88;;;17.80;61.50;;;;;;5088469;28;20080;-73
2023/05/04 09:45:09;;;;;;;10.07;5.78;;;17.90;61.50;;;;;;5071810;28;20021;-74
2023/05/04 09:47:39;;;;;;;10.27;5.85;;;17.90;61.10;;;;;;5088073;28;20045;-73
2023/05/04 09:50:21;;;;;;;8.77;6.05;;;17.90;60.80;;;;;;5086570;28;20447;-73
2023/05/04 09:52:49;;;;;;;10.05;5.30;;;18.10;59.40;;;;;;5076104;28;20051;-74
2023/05/04 09:55:18;;;;;;;11.23;5.55;;;18.20;62.10;;;;;;5075907;28;20073;-74
2023/05/04 09:57:46;;;;;;;10.13;6.30;;;18.20;61.90;;;;;;5075761;28;20028;-74
2023/05/04 10:00:14;;;;;;;12.52;5.85;;;18.10;59.20;;;;;;5075712;28;20028;-74
2023/05/04 10:02:40;;;;;;;9.80;5.57;;;18.10;61.10;;;;;;5075743;28;20021;-74
2023/05/04 10:05:10;;;;;;;15.07;6.50;;;18.10;62.60;;;;;;5075733;28;20055;-74
2023/05/04 10:07:36;;;;;;;10.85;6.30;;;18.30;59.10;;;;;;5074675;28;20029;-74
2023/05/04 10:10:02;;;;;;;10.18;6.40;;;18.40;59.90;;;;;;5075554;28;20093;-73
2023/05/04 10:12:28;;;;;;;10.75;6.15;;;18.40;60.50;;;;;;5075674;28;20029;-73
2023/05/04 10:14:54;;;;;;;15.77;7.88;;;18.60;62.10;;;;;;5075481;28;20033;-73
2023/05/04 10:17:44;;;;;;;13.52;6.47;;;18.70;61.10;;;;;;5075615;28;20033;-74
2023/05/04 10:20:43;;;;;;;11.95;6.88;;;18.80;57.20;;;;;;5075341;28;20035;-74
2023/05/04 10:23:21;;;;;;;10.55;6.40;;;19.00;56.80;;;;;;5075542;28;20017;-74
2023/05/04 10:26:12;;;;;;;11.60;6.47;;;19.10;58.50;;;;;;5075418;28;20025;-74
2023/05/04 10:29:18;;;;;;;12.05;7.00;;;19.20;59.50;;;;;;5074221;28;20035;-73
2023/05/04 10:31:44;;;;;;;10.07;6.28;;;19.40;58.80;;;;;;5075387;28;20477;-73
2023/05/04 10:34:10;;;;;;;11.10;6.20;;;19.30;57.30;;;;;;5075111;28;20025;-74
2023/05/04 10:36:36;;;;;;;15.77;6.95;;;19.50;57.20;;;;;;5075107;28;20032;-74
2023/05/04 10:39:03;;;;;;;13.10;6.80;;;19.50;56.60;;;;;;5074778;28;20052;-73
2023/05/04 10:41:28;;;;;;;10.07;6.00;;;19.60;56.90;;;;;;5074066;28;20025;-74
2023/05/04 10:44:05;;;;;;;11.07;6.22;;;19.70;58.40;;;;;;5074049;28;20504;-74
2023/05/04 10:46:30;;;;;;;11.18;6.40;;;19.80;55.10;;;;;;5075063;28;20070;-74
2023/05/04 10:48:56;;;;;;;19.13;7.80;;;19.80;55.10;;;;;;5074024;28;20025;-74
2023/05/04 10:51:23;;;;;;;11.77;6.18;;;19.90;55.30;;;;;;5073855;28;20477;-74
2023/05/04 10:53:49;;;;;;;11.45;6.50;;;20.00;53.60;;;;;;5073776;28;20029;-74
2023/05/04 10:56:27;;;;;;;10.55;6.13;;;20.10;53.90;;;;;;5074762;28;20040;-74
2023/05/04 10:58:53;;;;;;;10.73;6.63;;;20.20;54.60;;;;;;5074564;28;20036;-74
2023/05/04 11:01:20;;;;;;;8.80;5.63;;;20.30;53.20;;;;;;5073796;28;20045;-74
2023/05/04 11:03:47;;;;;;;10.82;6.60;;;20.40;53.10;;;;;;5072647;28;20025;-75
2023/05/04 11:06:16;;;;;;;10.55;6.72;;;20.50;50.00;;;;;;5073584;28;20025;-74
2023/05/04 11:08:44;;;;;;;9.90;6.47;;;20.50;49.80;;;;;;5073422;28;20484;-74
2023/05/04 11:11:09;;;;;;;8.55;5.13;;;20.50;51.40;;;;;;5073582;28;20025;-74
2023/05/04 11:13:44;;;;;;;10.27;5.85;;;20.70;51.30;;;;;;5074386;28;20114;-74
2023/05/04 11:16:11;;;;;;;11.25;6.55;;;20.60;50.90;;;;;;5074428;28;20043;-74
2023/05/04 11:18:39;;;;;;;11.02;5.82;;;20.60;53.40;;;;;;5074216;28;20025;-74
2023/05/04 11:21:07;;;;;;;11.07;5.85;;;20.60;49.10;;;;;;5074317;28;20021;-74
2023/05/04 11:23:33;;;;;;;10.15;5.82;;;20.80;48.80;;;;;;5074211;28;20023;-74
2023/05/04 11:26:05;;;;;;;9.80;5.07;;;20.90;48.40;;;;;;5074283;28;20029;-74
2023/05/04 11:28:35;;;;;;;9.43;5.72;;;20.90;47.50;;;;;;5073217;28;20024;-74
2023/05/04 11:31:11;;;;;;;10.40;6.25;;;21.00;46.60;;;;;;5073189;28;20045;-74
2023/05/04 11:33:37;;;;;;;9.43;5.55;;;21.20;47.50;;;;;;5073965;28;20017;-74
2023/05/04 11:36:03;;;;;;;9.90;5.75;;;21.30;46.80;;;;;;5073956;28;20033;-74
2023/05/04 11:38:28;;;;;;;13.55;6.32;;;21.20;46.00;;;;;;5073846;28;20093;-74
2023/05/04 11:40:54;;;;;;;10.02;5.88;;;21.20;47.40;;;;;;5072761;28;20033;-74
2023/05/04 11:43:20;;;;;;;9.88;4.63;;;21.20;44.10;;;;;;5072744;28;20029;-74
2023/05/04 11:45:47;;;;;;;9.23;4.70;;;21.20;46.40;;;;;;5072741;28;20025;-74
2023/05/04 11:48:13;;;;;;;9.85;5.00;;;21.30;45.20;;;;;;5073753;28;20025;-74
2023/05/04 11:50:40;;;;;;;9.65;4.95;;;21.30;45.30;;;;;;5056234;28;20096;-74
2023/05/04 11:53:13;;;;;;;6.90;5.25;;;21.50;45.90;;;;;;5073617;28;20092;-75
2023/05/04 11:55:39;;;;;;;9.23;5.53;;;21.70;41.70;;;;;;5073636;28;20029;-74
2023/05/04 11:58:07;;;;;;;8.73;6.03;;;21.70;43.30;;;;;;5072616;28;20024;-75
2023/05/04 12:00:36;;;;;;;19.05;5.47;;;21.70;42.30;;;;;;5073481;28;20028;-74
2023/05/04 12:03:02;;;;;;;6.88;4.57;;;21.70;44.70;;;;;;5072522;28;20043;-74
2023/05/04 12:05:29;;;;;;;7.13;4.45;;;21.80;39.90;;;;;;5072615;28;20021;-75
2023/05/04 12:07:55;;;;;;;7.13;4.40;;;21.90;40.50;;;;;;5056034;28;20045;-74
2023/05/04 12:10:33;;;;;;;8.70;4.80;;;21.90;41.70;;;;;;5073345;28;20036;-74
2023/05/04 12:13:02;;;;;;;8.10;5.07;;;22.00;41.10;;;;;;5073249;28;20056;-75
2023/05/04 12:15:35;;;;;;;8.13;4.97;;;22.00;40.10;;;;;;5072265;28;20052;-74
2023/05/04 12:18:01;;;;;;;9.98;5.65;;;22.00;42.20;;;;;;5073530;28;20031;-75
2023/05/04 12:20:28;;;;;;;8.27;5.25;;;22.00;42.10;;;;;;5073141;28;20033;-74
2023/05/04 12:22:56;;;;;;;10.02;5.63;;;22.10;42.10;;;;;;5073226;28;20060;-74
2023/05/04 12:25:23;;;;;;;9.73;5.05;;;22.20;43.50;;;;;;5072245;28;20029;-74
2023/05/04 12:27:49;;;;;;;8.48;4.82;;;22.40;43.50;;;;;;5073074;28;20529;-74
2023/05/04 12:30:15;;;;;;;9.15;4.75;;;22.30;39.30;;;;;;5073128;28;20029;-74
2023/05/04 12:32:44;;;;;;;12.32;5.80;;;22.40;40.50;;;;;;5073079;28;20040;-75
2023/05/04 12:35:10;;;;;;;10.05;5.28;;;22.50;40.20;;;;;;5072041;28;20120;-74
2023/05/04 12:37:36;;;;;;;8.07;4.78;;;22.60;40.30;;;;;;5038903;28;20036;-74
2023/05/04 12:40:03;;;;;;;7.97;4.88;;;22.70;39.60;;;;;;5072892;28;20086;-75
2023/05/04 12:42:29;;;;;;;10.43;5.90;;;22.70;37.90;;;;;;5055595;28;20025;-75